Bookmark and Share
Track history (hours):
 

Ice

Last reported at 2014-Mar-18 00:13 UTC. Time now 2014-Apr-19 17:12 UTC.
Position N 36°41' E 026°23'.
Warning: this ship's position is 32 days out of date.

Length 90 m; draft 5 m.

Type: Pleasure craft. MMSI: 319411000.

NotesDate/timePositionNaut miles runAvg speedWind from/ knotsBaromVisibWave heightAir tempDewpointWater temp
2014-Mar-18 00:13N 36°41' E 026°23'711.1
2014-Mar-17 23:33N 36°39' E 026°14'1111.1
2014-Mar-17 22:33N 36°38' E 026°00'1111.0
2014-Mar-17 21:33N 36°36' E 025°47'1110.9
2014-Mar-17 20:33N 36°34' E 025°33'1110.9
2014-Mar-17 19:33N 36°32' E 025°20'1110.9
2014-Mar-17 18:33N 36°31' E 025°07'1111.4
2014-Mar-17 17:33N 36°29' E 024°53'1211.6
2014-Mar-17 16:33N 36°28' E 024°38'1111.3
2014-Mar-17 15:33N 36°26' E 024°24'1111.1
2014-Mar-17 14:33N 36°25' E 024°11'1111.3
2014-Mar-17 13:33N 36°24' E 023°57'1111.2
2014-Mar-17 12:33N 36°22' E 023°43'1211.3
2014-Mar-17 11:32N 36°20' E 023°29'2511.3
2014-Mar-17 09:17N 36°24' E 022°58'1011.7
2014-Mar-17 08:27N 36°24' E 022°46'35811.2
2014-Mar-16 00:31N 38°11' E 015°36'10 7.6
2014-Mar-15 23:15N 38°20' E 015°33'912.8
2014-Mar-15 22:33N 38°20' E 015°21'1313.1
2014-Mar-15 21:33N 38°20' E 015°05'29411.3
2014-Mar-14 19:26N 38°32' E 008°50'2511.4
2014-Mar-14 17:12N 38°40' E 008°19'22912.1
2014-Mar-13 22:20N 40°33' E 004°01'1112.3
2014-Mar-13 21:26N 40°39' E 003°49'1112.6
2014-Mar-13 20:32N 40°44' E 003°36'1111.8
2014-Mar-13 19:33N 40°50' E 003°22'1212.2
2014-Mar-13 18:33N 40°56' E 003°08'1212.2
2014-Mar-13 17:32N 41°02' E 002°54'1212.0
2014-Mar-13 16:31N 41°07' E 002°40'26 0.6
2014-Mar-11 19:25N 41°22' E 002°11'0 0.0
2014-Mar-11 18:32N 41°22' E 002°11'0 0.0
2014-Mar-11 16:33N 41°22' E 002°11'0 0.0
2014-Mar-11 13:23N 41°22' E 002°11'0 0.0
2014-Mar-11 12:32N 41°22' E 002°11'0 0.0
2014-Mar-11 02:25N 41°22' E 002°11'0 0.0
2014-Mar-11 01:27N 41°22' E 002°11'0 0.0
2014-Mar-10 18:07N 41°22' E 002°11'0 0.0
2014-Mar-10 07:18N 41°22' E 002°11'0 0.0
2014-Mar-10 04:32N 41°22' E 002°11'0 0.0
2014-Mar-10 03:09N 41°22' E 002°11'0 0.0
2014-Mar-09 15:05N 41°22' E 002°11'0 0.0
2014-Mar-09 14:29N 41°22' E 002°11'0 0.0
2014-Mar-09 13:30N 41°22' E 002°11'0 0.0
2014-Mar-09 12:30N 41°22' E 002°11'0 0.0
2014-Mar-09 02:33N 41°22' E 002°11'0 0.0
2014-Mar-08 18:30N 41°22' E 002°11'0 0.0
2014-Mar-08 15:32N 41°22' E 002°11'0 0.0
2014-Mar-08 06:26N 41°22' E 002°11'0 0.0
2014-Mar-08 05:27N 41°22' E 002°11'0 0.0
2014-Mar-08 04:10N 41°22' E 002°11'0 0.0
2014-Mar-08 03:28N 41°22' E 002°11'  

Dump ship's entire track history

sailing weather and tide predictions

Ice — ZCOE9 — position and weather